Time;durP1;ratioP1;P1;durP2;ratioP2;P2;SDS_P1;SDS_P2;PMS_P1;PMS_P2;Temp;Humidity;BMP_temperature;BMP_pressure;BME280_temperature;BME280_humidity;BME280_pressure;Samples;Min_cycle;Max_cycle;Signal;HPM_P1;HPM_P2
2022/07/03 00:01:55;;;;;;;3.65;1.77;;;;;;;22.34;44.54;99963.09;4973899;28;20046;-60
2022/07/03 00:04:22;;;;;;;15.85;2.72;;;;;;;22.29;44.43;99960.91;4993945;28;20046;-62
2022/07/03 00:06:49;;;;;;;6.32;1.92;;;;;;;22.25;44.74;99955.00;4995177;28;20042;-62
2022/07/03 00:09:17;;;;;;;10.65;1.55;;;;;;;22.22;45.30;99966.06;4994961;28;20050;-61
2022/07/03 00:11:44;;;;;;;9.35;1.58;;;;;;;22.19;45.39;99958.31;4995578;28;20483;-62
2022/07/03 00:14:10;;;;;;;5.20;1.42;;;;;;;22.16;45.35;99955.97;4995048;28;20046;-60
2022/07/03 00:16:37;;;;;;;5.53;1.50;;;;;;;22.13;45.56;99957.13;4995000;28;20046;-61
2022/07/03 00:19:04;;;;;;;7.10;1.60;;;;;;;22.10;45.92;99952.06;4994399;28;20501;-63
2022/07/03 00:21:44;;;;;;;5.75;1.50;;;;;;;22.03;45.11;99953.72;4995276;28;20054;-61
2022/07/03 00:24:37;;;;;;;3.25;1.60;;;;;;;21.99;45.38;99955.03;4994880;28;20070;-62
2022/07/03 00:27:09;;;;;;;6.47;1.88;;;;;;;21.99;45.88;99950.50;4994969;28;20047;-60
2022/07/03 00:29:42;;;;;;;4.47;1.30;;;;;;;21.96;45.66;99947.28;4994462;28;20544;-60
2022/07/03 00:32:09;;;;;;;;;;;;;;;21.94;44.57;99943.94;4995279;28;20446;-61
2022/07/03 00:34:41;;;;;;;5.03;1.20;;;;;;;21.95;46.08;99937.56;4994719;28;20289;-64
2022/07/03 00:37:10;;;;;;;4.65;1.80;;;;;;;21.94;45.78;99949.31;4995222;28;20050;-60
2022/07/03 00:39:39;;;;;;;8.82;1.60;;;;;;;21.87;46.02;99946.41;4977037;28;20054;-60
2022/07/03 00:42:07;;;;;;;6.15;1.80;;;;;;;21.84;45.24;99944.88;4977115;28;20426;-62
2022/07/03 00:44:43;;;;;;;5.18;1.98;;;;;;;21.79;45.35;99943.69;4977317;28;20112;-62
2022/07/03 00:47:12;;;;;;;4.55;1.60;;;;;;;21.78;45.34;99944.66;4977402;28;20125;-60
2022/07/03 00:49:43;;;;;;;5.80;1.77;;;;;;;21.73;44.97;99946.00;4994322;28;20055;-61
2022/07/03 00:52:11;;;;;;;4.95;1.58;;;;;;;21.72;44.61;99949.63;4977457;28;20058;-61
2022/07/03 00:54:43;;;;;;;5.57;1.75;;;;;;;21.69;45.24;99947.25;4976802;28;20105;-61
2022/07/03 00:57:16;;;;;;;2.70;1.60;;;;;;;21.67;44.92;99937.66;4994677;28;20050;-60
2022/07/03 00:59:43;;;;;;;3.90;1.58;;;;;;;21.67;44.81;99935.84;4994011;28;20490;-62
2022/07/03 01:02:33;;;;;;;7.07;2.22;;;;;;;21.61;44.92;99941.84;4994700;28;20050;-61
2022/07/03 01:05:03;;;;;;;5.22;2.05;;;;;;;21.65;45.19;99937.84;4994079;28;20057;-60
2022/07/03 01:07:48;;;;;;;5.20;1.63;;;;;;;21.61;45.14;99939.16;4994493;28;20045;-60
2022/07/03 01:10:45;;;;;;;4.65;1.95;;;;;;;21.58;45.10;99939.47;4994039;28;20053;-60
2022/07/03 01:13:31;;;;;;;2.63;1.63;;;;;;;21.56;44.77;99944.97;4994037;28;20049;-60
2022/07/03 01:16:35;;;;;;;2.30;1.75;;;;;;;21.56;44.64;99952.16;4975361;28;20040;-61
2022/07/03 01:19:15;;;;;;;3.58;1.90;;;;;;;21.54;44.53;99946.97;4993709;28;20133;-61
2022/07/03 01:22:15;;;;;;;5.53;2.50;;;;;;;21.52;45.03;99946.28;4977620;28;20050;-60
2022/07/03 01:25:15;;;;;;;6.90;2.20;;;;;;;21.50;45.25;99928.69;4994107;28;20047;-62
2022/07/03 01:28:00;;;;;;;3.40;1.65;;;;;;;21.48;46.02;99932.38;4993625;28;20289;-61
2022/07/03 01:30:29;;;;;;;2.60;1.60;;;;;;;21.53;45.90;99923.03;4993505;28;20502;-61
2022/07/03 01:33:08;;;;;;;2.58;1.33;;;;;;;21.47;45.98;99919.97;4993783;28;20093;-62
2022/07/03 01:35:37;;;;;;;4.03;1.40;;;;;;;21.50;45.96;99921.50;4993551;28;20108;-62
2022/07/03 01:38:11;;;;;;;3.55;1.35;;;;;;;21.47;46.38;99925.34;4993447;28;20097;-64
2022/07/03 01:40:40;;;;;;;9.48;1.67;;;;;;;21.50;46.58;99923.31;4976022;28;20046;-63
2022/07/03 01:43:09;;;;;;;2.92;1.63;;;;;;;21.47;46.97;99914.63;4976297;28;20038;-60
2022/07/03 01:45:43;;;;;;;3.42;1.25;;;;;;;21.45;47.30;99903.22;4993453;28;20531;-61
2022/07/03 01:48:11;;;;;;;4.63;1.50;;;;;;;21.46;46.93;99907.56;4993375;28;20648;-60
2022/07/03 01:50:40;;;;;;;2.92;1.42;;;;;;;21.45;46.96;99899.69;4975798;28;20117;-65
2022/07/03 01:53:09;;;;;;;3.30;1.38;;;;;;;21.43;47.01;99905.22;4993438;28;20137;-61
2022/07/03 01:55:40;;;;;;;3.13;1.27;;;;;;;21.40;47.22;99910.00;4993238;28;20058;-61
2022/07/03 01:58:07;;;;;;;4.15;1.70;;;;;;;21.38;47.43;99904.00;4993370;28;20390;-62
2022/07/03 02:01:15;;;;;;;6.65;1.27;;;;;;;21.31;47.79;99906.44;4993230;28;20050;-60
2022/07/03 02:03:50;;;;;;;4.20;1.77;;;;;;;21.31;46.85;99909.94;4956705;28;20410;-61
2022/07/03 02:06:43;;;;;;;6.88;1.73;;;;;;;21.26;46.77;99898.84;4992900;28;20046;-62
2022/07/03 02:09:12;;;;;;;4.07;1.20;;;;;;;21.29;47.15;99900.38;4992835;28;20050;-60
2022/07/03 02:11:51;;;;;;;3.13;1.13;;;;;;;21.29;47.77;99903.06;4992803;28;20478;-60
2022/07/03 02:14:22;;;;;;;5.82;1.60;;;;;;;21.27;46.92;99903.22;4993179;28;20088;-60
2022/07/03 02:17:18;;;;;;;7.65;1.60;;;;;;;21.22;46.92;99900.16;4975416;28;20054;-61
2022/07/03 02:20:03;;;;;;;3.90;1.70;;;;;;;21.21;46.83;99909.19;4992592;28;20042;-61
2022/07/03 02:22:35;;;;;;;7.70;1.40;;;;;;;21.24;47.74;99897.34;4975261;28;20046;-60
2022/07/03 02:25:07;;;;;;;5.03;1.58;;;;;;;21.25;47.31;99897.19;4992956;28;20046;-61
2022/07/03 02:28:04;;;;;;;2.47;1.30;;;;;;;21.23;47.05;99893.81;4992188;28;20038;-60
2022/07/03 02:30:35;;;;;;;2.85;1.17;;;;;;;21.27;47.80;99897.84;4967593;28;20054;-62
2022/07/03 02:33:04;;;;;;;1.10;1.00;;;;;;;21.31;47.88;99887.69;4992705;28;20120;-60
2022/07/03 02:35:32;;;;;;;2.13;1.10;;;;;;;21.32;47.76;99889.38;4975157;28;20515;-60
2022/07/03 02:38:06;;;;;;;2.47;1.00;;;;;;;21.30;47.62;99886.03;4992132;28;20057;-62
2022/07/03 02:40:42;;;;;;;1.90;1.13;;;;;;;21.29;47.34;99887.00;4975095;28;20042;-59
2022/07/03 02:43:47;;;;;;;7.05;1.40;;;;;;;21.26;47.41;99887.34;4975333;28;20101;-61
2022/07/03 02:49:08;;;;;;;2.13;1.02;;;;;;;21.30;48.28;99894.06;4991988;28;20050;-62
2022/07/03 02:51:37;;;;;;;4.35;1.38;;;;;;;21.27;48.93;99891.69;4992592;28;20042;-61
2022/07/03 02:54:12;;;;;;;5.32;1.10;;;;;;;21.25;49.02;99894.50;4974709;28;20483;-61
2022/07/03 02:57:06;;;;;;;1.35;0.90;;;;;;;21.21;48.74;99893.97;4974900;28;20053;-60
2022/07/03 02:59:45;;;;;;;1.85;1.00;;;;;;;21.28;48.96;99894.22;4991653;28;20054;-60
2022/07/03 03:02:37;;;;;;;1.13;0.95;;;;;;;21.24;49.01;99887.47;4974930;28;20090;-62
2022/07/03 03:05:13;;;;;;;1.95;0.90;;;;;;;21.29;48.84;99890.53;4991930;28;20065;-60
2022/07/03 03:07:56;;;;;;;3.25;1.20;;;;;;;21.27;48.96;99884.47;4991995;28;20148;-60
2022/07/03 03:10:22;;;;;;;3.63;1.23;;;;;;;21.31;49.25;99879.66;4991740;28;20054;-61
2022/07/03 03:12:58;;;;;;;5.78;1.23;;;;;;;21.30;50.13;99886.03;4991776;28;20050;-61
2022/07/03 03:15:29;;;;;;;1.98;0.90;;;;;;;21.31;49.80;99888.53;4991873;28;20046;-61
2022/07/03 03:18:02;;;;;;;5.47;0.90;;;;;;;21.31;50.34;99877.81;4991765;28;20145;-62
2022/07/03 03:20:32;;;;;;;1.90;1.08;;;;;;;21.33;49.88;99870.47;4974076;28;20065;-60
2022/07/03 03:23:19;;;;;;;1.55;0.80;;;;;;;21.34;50.35;99869.47;4991926;28;20065;-61
2022/07/03 03:25:46;;;;;;;3.00;0.80;;;;;;;21.37;49.38;99871.00;4991608;28;20047;-61
2022/07/03 03:28:13;;;;;;;3.38;1.10;;;;;;;21.37;49.99;99873.69;4991533;28;20109;-61
2022/07/03 03:30:40;;;;;;;2.13;0.93;;;;;;;21.38;49.75;99870.00;4991388;28;20050;-61
2022/07/03 03:33:08;;;;;;;2.35;0.90;;;;;;;21.39;49.29;99874.38;4991554;28;20046;-61
2022/07/03 03:35:38;;;;;;;3.40;0.80;;;;;;;21.38;48.44;99870.00;4991593;28;20380;-62
2022/07/03 03:38:06;;;;;;;1.08;0.60;;;;;;;21.41;48.57;99859.00;4973408;28;20046;-61
2022/07/03 03:40:33;;;;;;;4.45;0.82;;;;;;;21.44;49.54;99869.41;4974013;28;20050;-62
2022/07/03 03:43:01;;;;;;;3.55;1.10;;;;;;;21.47;49.17;99877.13;4991447;28;20391;-61
2022/07/03 03:45:27;;;;;;;1.77;0.90;;;;;;;21.52;49.70;99871.28;4991398;28;20097;-60
2022/07/03 03:47:54;;;;;;;1.42;0.68;;;;;;;21.54;48.19;99873.81;4991305;28;20058;-61
2022/07/03 03:50:21;;;;;;;1.20;0.75;;;;;;;21.55;48.78;99873.66;4991045;28;20478;-61
2022/07/03 03:52:48;;;;;;;1.48;0.60;;;;;;;21.59;48.74;99874.19;4991429;28;20061;-60
2022/07/03 03:55:15;;;;;;;5.35;1.02;;;;;;;21.61;48.94;99874.88;4991246;28;20050;-60
2022/07/03 03:57:42;;;;;;;1.90;0.68;;;;;;;21.64;49.29;99866.50;4991144;28;20058;-60
2022/07/03 04:00:09;;;;;;;1.58;0.73;;;;;;;21.65;49.29;99870.88;4990982;28;20049;-60
2022/07/03 04:02:35;;;;;;;5.57;1.20;;;;;;;21.67;49.05;99871.56;4974022;28;20057;-60
2022/07/03 04:05:02;;;;;;;4.78;0.80;;;;;;;21.67;49.48;99866.19;4991185;28;20046;-60
2022/07/03 04:07:29;;;;;;;3.97;0.95;;;;;;;21.68;49.59;99867.88;4973780;28;20046;-65
2022/07/03 04:09:56;;;;;;;2.47;0.70;;;;;;;21.67;49.55;99871.56;4990946;28;20050;-62
2022/07/03 04:12:22;;;;;;;3.03;0.90;;;;;;;21.66;49.63;99872.56;4991105;28;20115;-60
2022/07/03 04:14:49;;;;;;;1.73;0.68;;;;;;;21.64;48.37;99871.84;4990940;28;20050;-65
2022/07/03 04:17:17;;;;;;;5.13;0.88;;;;;;;21.62;48.02;99873.88;4991173;28;20047;-61
2022/07/03 04:19:43;;;;;;;2.78;0.82;;;;;;;21.61;47.64;99869.53;4990832;28;20054;-63
2022/07/03 04:22:11;;;;;;;2.15;0.90;;;;;;;21.60;47.30;99874.03;4990749;28;20077;-62
2022/07/03 04:24:38;;;;;;;0.98;0.80;;;;;;;21.62;46.81;99881.91;4990961;28;20042;-62
2022/07/03 04:27:04;;;;;;;1.58;0.70;;;;;;;21.63;46.55;99878.22;4990904;28;20054;-61
2022/07/03 04:29:31;;;;;;;1.77;0.88;;;;;;;21.66;46.33;99877.06;4990795;28;20109;-60
2022/07/03 04:31:57;;;;;;;2.58;0.90;;;;;;;21.66;46.11;99877.91;4991025;28;20053;-63
2022/07/03 04:34:24;;;;;;;2.10;0.82;;;;;;;21.69;46.17;99877.63;4991148;28;20057;-61
2022/07/03 04:36:50;;;;;;;1.65;0.68;;;;;;;21.74;45.89;99878.00;4990827;28;20483;-61
2022/07/03 04:39:17;;;;;;;2.50;0.77;;;;;;;21.79;45.81;99876.69;4990953;28;20089;-61
2022/07/03 04:41:43;;;;;;;4.20;0.95;;;;;;;21.83;45.64;99886.91;4990696;28;20065;-63
2022/07/03 04:44:10;;;;;;;4.93;1.00;;;;;;;21.89;46.33;99889.97;4990905;28;20545;-62
2022/07/03 04:46:37;;;;;;;1.73;0.85;;;;;;;21.93;46.24;99885.97;4990489;28;20043;-59
2022/07/03 04:49:03;;;;;;;3.55;0.80;;;;;;;21.97;46.25;99893.53;4974347;28;20141;-60
2022/07/03 04:51:30;;;;;;;1.40;0.80;;;;;;;22.02;46.06;99893.06;4994263;28;20471;-61
2022/07/03 04:53:57;;;;;;;5.07;1.20;;;;;;;22.06;46.20;99891.75;4994483;28;20050;-60
2022/07/03 04:56:23;;;;;;;2.63;0.70;;;;;;;22.12;46.28;99892.94;4994145;28;20046;-61
2022/07/03 04:58:50;;;;;;;13.60;0.90;;;;;;;22.17;46.18;99897.84;4994359;28;20519;-60
2022/07/03 05:01:16;;;;;;;1.38;0.80;;;;;;;22.21;45.55;99896.50;4994288;28;20050;-62
2022/07/03 05:03:43;;;;;;;2.22;0.75;;;;;;;22.25;45.08;99898.69;4994462;28;20050;-60
2022/07/03 05:06:09;;;;;;;0.85;0.60;;;;;;;22.30;45.21;99900.06;4994336;28;20051;-61
2022/07/03 05:08:36;;;;;;;3.17;0.77;;;;;;;22.34;45.10;99899.59;4993882;28;20057;-64
2022/07/03 05:11:03;;;;;;;2.15;0.70;;;;;;;22.39;44.98;99893.75;4994178;28;20101;-61
2022/07/03 05:13:29;;;;;;;0.95;0.57;;;;;;;22.43;44.95;99897.75;4993914;28;20105;-61
2022/07/03 05:15:56;;;;;;;2.10;0.68;;;;;;;22.48;44.99;99895.44;4993970;28;20426;-61
2022/07/03 05:18:22;;;;;;;1.27;0.60;;;;;;;22.54;44.27;99893.13;4993888;28;20050;-62
2022/07/03 05:20:49;;;;;;;1.45;0.60;;;;;;;22.60;44.74;99895.16;4993793;28;20039;-61
2022/07/03 05:23:15;;;;;;;1.05;0.70;;;;;;;22.65;44.53;99900.88;4993623;28;20591;-67
2022/07/03 05:25:42;;;;;;;1.45;0.60;;;;;;;22.70;45.00;99893.19;4994027;28;20389;-60
2022/07/03 05:28:09;;;;;;;2.05;0.70;;;;;;;22.77;44.88;99898.75;4993629;28;20405;-62
2022/07/03 05:30:35;;;;;;;0.85;0.60;;;;;;;22.83;45.08;99905.31;4993672;28;20058;-62
2022/07/03 05:33:02;;;;;;;3.90;0.70;;;;;;;22.88;44.92;99914.53;4993721;28;20133;-62
2022/07/03 05:35:29;;;;;;;0.90;0.52;;;;;;;22.93;44.41;99905.13;4993622;28;20057;-63
2022/07/03 05:37:55;;;;;;;0.88;0.60;;;;;;;22.98;45.05;99914.38;4993525;28;20043;-61
2022/07/03 05:40:22;;;;;;;0.63;0.63;;;;;;;23.03;45.26;99906.66;4993323;28;20406;-59
2022/07/03 05:42:49;;;;;;;1.77;0.65;;;;;;;23.11;45.53;99916.59;4993463;28;20050;-60
2022/07/03 05:45:15;;;;;;;0.90;0.50;;;;;;;23.16;45.47;99910.72;4993552;28;20050;-61
2022/07/03 05:47:42;;;;;;;0.93;0.70;;;;;;;23.19;45.24;99912.22;4993505;28;20046;-61
2022/07/03 05:50:09;;;;;;;1.80;0.80;;;;;;;23.22;44.49;99914.59;4993249;28;20186;-61
2022/07/03 05:52:36;;;;;;;4.57;0.55;;;;;;;23.24;44.28;99909.88;4975954;28;20390;-61
2022/07/03 05:55:03;;;;;;;3.00;0.80;;;;;;;23.27;44.25;99914.91;4993240;28;20081;-60
2022/07/03 05:57:30;;;;;;;1.60;0.82;;;;;;;23.30;43.90;99914.59;4993196;28;20050;-62
2022/07/03 05:59:59;;;;;;;2.05;0.80;;;;;;;23.34;43.40;99920.50;4993058;28;20057;-60
2022/07/03 06:02:26;;;;;;;1.40;0.68;;;;;;;23.37;43.81;99918.31;4993064;28;20042;-63
2022/07/03 06:04:52;;;;;;;1.65;0.80;;;;;;;23.41;43.27;99916.13;4992967;28;20054;-60
2022/07/03 06:07:19;;;;;;;1.05;0.90;;;;;;;23.46;43.25;99929.91;4993314;28;20108;-60
2022/07/03 06:09:47;;;;;;;0.88;0.50;;;;;;;23.51;43.10;99932.09;4992983;28;20050;-62
2022/07/03 06:12:14;;;;;;;1.45;0.90;;;;;;;23.56;42.77;99933.25;4975727;28;20092;-60
2022/07/03 06:14:41;;;;;;;1.45;0.77;;;;;;;23.60;42.75;99931.06;4975595;28;20046;-60
2022/07/03 06:17:07;;;;;;;4.57;0.68;;;;;;;23.65;42.29;99930.56;4992832;28;20050;-63
2022/07/03 06:19:34;;;;;;;1.30;0.77;;;;;;;23.69;42.11;99927.38;4992565;28;20422;-60
2022/07/03 06:22:01;;;;;;;2.45;0.70;;;;;;;23.73;42.68;99918.97;4992694;28;20074;-61
2022/07/03 06:24:27;;;;;;;2.10;0.90;;;;;;;23.78;42.29;99925.50;4992965;28;20084;-61
2022/07/03 06:26:54;;;;;;;1.33;0.70;;;;;;;23.84;42.01;99931.22;4992961;28;20489;-60
2022/07/03 06:29:20;;;;;;;2.53;0.95;;;;;;;23.89;42.20;99934.22;4992432;28;20058;-60
2022/07/03 06:31:47;;;;;;;1.33;0.80;;;;;;;23.93;42.08;99935.56;4992720;28;20046;-60
2022/07/03 06:34:13;;;;;;;1.00;0.70;;;;;;;23.98;42.21;99938.59;4992185;28;20418;-60
2022/07/03 06:36:40;;;;;;;2.30;0.85;;;;;;;24.02;42.19;99942.59;4992773;28;20053;-60
2022/07/03 06:39:06;;;;;;;3.88;0.80;;;;;;;24.04;41.44;99945.94;4992184;28;20046;-62
2022/07/03 06:41:33;;;;;;;1.88;1.00;;;;;;;24.08;41.94;99949.16;4992553;28;20042;-61
2022/07/03 06:43:59;;;;;;;1.95;0.98;;;;;;;24.12;42.30;99950.53;4992336;28;20045;-61
2022/07/03 06:46:26;;;;;;;3.03;1.13;;;;;;;24.16;42.47;99945.63;4992225;28;20097;-61
2022/07/03 06:48:52;;;;;;;1.70;0.98;;;;;;;24.17;42.83;99936.53;4991915;28;20064;-62
2022/07/03 06:51:19;;;;;;;4.75;1.20;;;;;;;24.19;42.93;99943.41;4992507;28;20113;-61
2022/07/03 06:53:46;;;;;;;1.92;0.98;;;;;;;24.21;43.12;99935.19;4992227;28;20045;-61
2022/07/03 06:56:12;;;;;;;2.05;1.17;;;;;;;24.22;42.94;99942.22;4992385;28;20169;-61
2022/07/03 06:58:39;;;;;;;2.78;1.58;;;;;;;24.25;43.37;99946.47;4992012;28;20430;-61
2022/07/03 07:01:05;;;;;;;3.50;1.40;;;;;;;24.26;43.11;99940.06;4992244;28;20498;-61
2022/07/03 07:03:32;;;;;;;2.95;1.40;;;;;;;24.28;43.34;99949.63;4992180;28;20521;-61
2022/07/03 07:05:59;;;;;;;2.83;1.48;;;;;;;24.31;43.60;99945.75;4983939;28;20125;-62
2022/07/03 07:08:25;;;;;;;4.70;1.70;;;;;;;24.33;43.32;99954.47;4992175;28;20053;-61
2022/07/03 07:10:52;;;;;;;4.32;1.60;;;;;;;24.35;42.94;99957.84;4992046;28;20077;-61
2022/07/03 07:13:18;;;;;;;2.47;1.50;;;;;;;24.36;43.05;99954.13;4991124;28;20054;-60
2022/07/03 07:15:45;;;;;;;2.15;1.58;;;;;;;24.37;43.24;99949.59;4991560;28;20109;-60
2022/07/03 07:18:11;;;;;;;2.28;1.75;;;;;;;24.38;42.73;99948.59;4991854;28;20139;-61
2022/07/03 07:20:38;;;;;;;2.90;1.40;;;;;;;24.41;43.06;99948.25;4991397;28;20042;-60
2022/07/03 07:23:05;;;;;;;3.58;1.75;;;;;;;24.45;43.06;99954.97;4991647;28;20050;-60
2022/07/03 07:25:31;;;;;;;4.18;1.75;;;;;;;24.48;43.49;99956.47;4991768;28;20487;-63
2022/07/03 07:27:58;;;;;;;2.92;1.95;;;;;;;24.50;43.32;99957.97;4974370;28;20046;-62
2022/07/03 07:30:25;;;;;;;3.15;1.67;;;;;;;24.54;43.05;99961.97;4991317;28;20050;-60
2022/07/03 07:32:51;;;;;;;3.03;1.92;;;;;;;24.56;43.56;99959.94;4991555;28;20096;-61
2022/07/03 07:35:20;;;;;;;2.40;1.67;;;;;;;24.60;43.11;99969.34;4991526;28;20051;-60
2022/07/03 07:37:48;;;;;;;3.78;1.40;;;;;;;24.64;42.67;99969.00;4991398;28;20057;-61
2022/07/03 07:40:14;;;;;;;3.28;1.67;;;;;;;24.68;43.25;99964.94;4991507;28;20050;-60
2022/07/03 07:42:42;;;;;;;4.35;1.98;;;;;;;24.71;42.91;99972.69;4991437;28;20042;-61
2022/07/03 07:45:12;;;;;;;2.92;1.75;;;;;;;24.75;42.83;99975.84;4991220;28;20481;-60
2022/07/03 07:47:39;;;;;;;2.90;1.65;;;;;;;24.82;42.64;99983.03;4991858;28;20053;-61
2022/07/03 07:50:06;;;;;;;4.90;1.60;;;;;;;24.87;43.03;99984.41;4991246;28;20054;-62
2022/07/03 07:52:33;;;;;;;2.53;1.40;;;;;;;24.92;42.78;99977.47;4991021;28;20058;-61
2022/07/03 07:54:59;;;;;;;5.15;1.70;;;;;;;24.96;42.61;99973.41;4991145;28;20050;-60
2022/07/03 07:57:36;;;;;;;4.32;2.00;;;;;;;25.00;42.11;99976.59;4991314;28;20061;-62
2022/07/03 08:00:10;;;;;;;2.22;1.20;;;;;;;25.07;42.41;99974.88;4984041;28;20414;-61
2022/07/03 08:05:35;;;;;;;2.85;1.13;;;;;;;25.22;41.88;99974.09;4991404;28;20454;-62
2022/07/03 08:08:05;;;;;;;4.05;1.30;;;;;;;25.28;41.28;99970.69;4991151;28;20053;-61
2022/07/03 08:10:36;;;;;;;1.70;1.13;;;;;;;25.33;40.81;99976.38;4991267;28;20179;-61
2022/07/03 08:13:04;;;;;;;2.45;1.40;;;;;;;25.41;41.70;99970.09;4991171;28;20054;-61
2022/07/03 08:15:30;;;;;;;2.72;1.08;;;;;;;25.48;41.59;99979.13;4973785;28;20066;-63
2022/07/03 08:17:57;;;;;;;2.05;1.30;;;;;;;25.56;41.55;99967.47;4990954;28;20449;-61
2022/07/03 08:20:23;;;;;;;1.30;1.20;;;;;;;25.63;41.35;99968.44;4990821;28;20538;-60
2022/07/03 08:22:50;;;;;;;2.47;1.15;;;;;;;25.70;41.83;99970.38;4990934;28;20109;-61
2022/07/03 08:25:17;;;;;;;3.10;1.20;;;;;;;25.78;41.30;99970.31;4994084;28;20039;-62
2022/07/03 08:27:44;;;;;;;2.03;1.17;;;;;;;25.85;40.91;99973.97;4994661;28;20046;-60
2022/07/03 08:30:13;;;;;;;1.52;1.17;;;;;;;25.93;41.40;99964.13;4994740;28;20422;-60
2022/07/03 08:32:40;;;;;;;2.35;1.13;;;;;;;26.00;41.14;99962.34;4994564;28;20054;-61
2022/07/03 08:35:07;;;;;;;2.63;1.30;;;;;;;26.07;40.61;99965.16;4977424;28;20536;-63
2022/07/03 08:37:34;;;;;;;3.28;1.27;;;;;;;26.14;40.39;99966.94;4994849;28;20101;-63
2022/07/03 08:40:03;;;;;;;3.35;1.30;;;;;;;26.21;40.46;99974.28;4994571;28;20057;-62
2022/07/03 08:42:32;;;;;;;3.60;0.98;;;;;;;26.29;39.77;99971.53;4994531;28;20053;-62
2022/07/03 08:45:01;;;;;;;6.15;0.82;;;;;;;26.34;40.74;99971.81;4977198;28;20046;-61
2022/07/03 08:47:31;;;;;;;1.95;1.00;;;;;;;26.39;40.15;99969.38;4994494;28;20046;-61
2022/07/03 08:49:59;;;;;;;5.72;1.10;;;;;;;26.47;40.24;99963.06;4994056;28;20101;-62
2022/07/03 08:52:26;;;;;;;1.27;1.00;;;;;;;26.53;39.95;99962.31;4994484;28;20065;-61
2022/07/03 08:54:53;;;;;;;1.92;0.77;;;;;;;26.61;39.36;99961.34;4976970;28;20502;-63
2022/07/03 08:57:20;;;;;;;4.38;1.00;;;;;;;26.65;39.12;99965.34;4994427;28;20062;-61
2022/07/03 08:59:52;;;;;;;2.40;0.85;;;;;;;26.70;39.46;99974.75;4993970;28;20513;-60
2022/07/03 09:02:20;;;;;;;2.83;1.10;;;;;;;26.77;39.21;99963.00;4994968;28;20058;-62
2022/07/03 09:04:48;;;;;;;6.05;0.90;;;;;;;26.84;38.93;99971.22;4994088;28;20054;-63
2022/07/03 09:07:17;;;;;;;1.92;0.90;;;;;;;26.88;39.37;99975.19;4994230;28;20482;-61
2022/07/03 09:09:45;;;;;;;2.70;0.80;;;;;;;26.95;39.28;99975.31;4993946;28;20042;-62
2022/07/03 09:12:13;;;;;;;1.40;0.70;;;;;;;26.99;38.37;99971.19;4976648;28;20047;-60
2022/07/03 09:14:39;;;;;;;2.42;0.80;;;;;;;27.03;38.09;99972.47;4993883;28;20057;-60
2022/07/03 09:17:08;;;;;;;0.98;0.70;;;;;;;27.10;37.84;99969.00;4993942;28;20386;-60
2022/07/03 09:19:42;;;;;;;1.33;0.70;;;;;;;27.11;38.18;99968.84;4993738;28;20051;-61
2022/07/03 09:22:29;;;;;;;1.90;0.95;;;;;;;27.16;38.13;99965.53;4993913;28;20046;-60
2022/07/03 09:25:08;;;;;;;3.83;0.68;;;;;;;27.24;38.64;99964.59;4993799;28;20557;-60
2022/07/03 09:27:48;;;;;;;1.08;0.70;;;;;;;27.34;38.29;99970.50;4994024;28;20100;-61
2022/07/03 09:30:14;;;;;;;1.77;0.70;;;;;;;27.39;37.57;99970.75;4993900;28;20047;-60
2022/07/03 09:32:45;;;;;;;0.70;0.60;;;;;;;27.43;37.66;99960.38;4993893;28;20050;-61
2022/07/03 09:35:22;;;;;;;4.13;0.88;;;;;;;27.44;37.35;99962.91;4993600;28;20271;-60
2022/07/03 09:37:54;;;;;;;2.50;0.82;;;;;;;27.50;37.12;99957.78;4993532;28;20486;-60
2022/07/03 09:40:22;;;;;;;1.13;0.65;;;;;;;27.55;38.25;99958.84;4976031;28;20054;-62
2022/07/03 09:43:03;;;;;;;4.32;1.02;;;;;;;27.57;37.99;99961.34;4993453;28;20042;-63
2022/07/03 09:45:48;;;;;;;1.77;0.90;;;;;;;27.63;37.96;99960.63;4993511;28;20061;-61
2022/07/03 09:48:41;;;;;;;1.52;0.70;;;;;;;27.73;37.47;99956.72;4993441;28;20454;-64
2022/07/03 09:51:08;;;;;;;1.35;0.82;;;;;;;27.84;37.39;99962.44;4989847;28;20053;-61
2022/07/03 09:53:46;;;;;;;1.58;0.70;;;;;;;27.89;36.64;99964.56;4993258;28;20097;-62
2022/07/03 09:56:23;;;;;;;2.45;0.68;;;;;;;27.97;38.01;99967.09;4993276;28;20509;-62
2022/07/03 09:59:08;;;;;;;2.97;0.57;;;;;;;28.03;37.32;99961.94;4975889;28;20042;-60
2022/07/03 10:01:37;;;;;;;0.82;0.45;;;;;;;28.16;37.33;99959.31;4992973;28;20050;-64
2022/07/03 10:04:21;;;;;;;1.15;0.70;;;;;;;28.22;36.56;99957.69;4993244;28;20050;-61
2022/07/03 10:06:49;;;;;;;1.58;0.73;;;;;;;28.35;37.26;99962.34;4975866;28;20442;-60
2022/07/03 10:09:18;;;;;;;1.67;0.90;;;;;;;28.46;36.80;99963.66;4992776;28;20501;-61
2022/07/03 10:11:45;;;;;;;1.38;0.60;;;;;;;28.58;36.93;99958.50;4993165;28;20054;-60
2022/07/03 10:14:17;;;;;;;2.00;0.70;;;;;;;28.66;36.26;99954.81;4992839;28;20054;-61
2022/07/03 10:16:45;;;;;;;1.85;0.80;;;;;;;28.77;36.86;99958.81;4975555;28;20055;-61
2022/07/03 10:19:19;;;;;;;2.30;0.77;;;;;;;28.87;36.64;99960.09;4992590;28;20055;-61
2022/07/03 10:21:53;;;;;;;1.13;0.70;;;;;;;28.97;37.09;99951.56;4975598;28;20093;-61
2022/07/03 10:24:27;;;;;;;1.55;0.80;;;;;;;29.10;36.14;99952.66;4975312;28;20505;-61
2022/07/03 10:26:55;;;;;;;1.30;0.70;;;;;;;29.23;36.70;99955.38;4992869;28;20053;-61
2022/07/03 10:29:24;;;;;;;1.80;0.70;;;;;;;29.33;35.62;99964.97;4992519;28;20050;-62
2022/07/03 10:31:55;;;;;;;4.40;0.80;;;;;;;29.37;35.26;99960.81;4992741;28;20050;-61
2022/07/03 10:34:24;;;;;;;0.60;0.60;;;;;;;29.34;34.55;99951.22;4992523;28;20093;-60
2022/07/03 10:36:57;;;;;;;1.58;0.70;;;;;;;29.25;34.75;99956.03;4992805;28;20046;-61
2022/07/03 10:39:33;;;;;;;1.95;0.82;;;;;;;29.12;34.72;99953.28;4992403;28;20482;-61
2022/07/03 10:45:06;;;;;;;1.45;0.70;;;;;;;28.85;35.85;99955.88;4992529;28;20050;-60
2022/07/03 10:47:48;;;;;;;1.95;0.70;;;;;;;28.84;36.91;99951.50;4992100;28;20050;-61
2022/07/03 10:50:18;;;;;;;2.70;0.80;;;;;;;28.84;36.55;99956.94;4992447;28;20533;-61
2022/07/03 10:52:45;;;;;;;2.15;0.90;;;;;;;28.91;36.61;99946.13;4992151;28;20061;-61
2022/07/03 10:55:13;;;;;;;1.73;0.88;;;;;;;29.09;36.57;99956.41;4974887;28;20057;-61
2022/07/03 10:57:42;;;;;;;1.40;0.80;;;;;;;29.38;36.38;99944.34;4992040;28;20101;-61
2022/07/03 11:00:16;;;;;;;3.97;1.40;;;;;;;29.78;36.19;99954.41;4974527;28;20057;-62
2022/07/03 11:02:44;;;;;;;1.60;0.98;;;;;;;30.22;35.61;99942.22;4992038;28;20576;-60
2022/07/03 11:05:18;;;;;;;4.85;1.08;;;;;;;30.61;34.61;99939.59;4991717;28;20470;-63
2022/07/03 11:07:50;;;;;;;1.70;0.80;;;;;;;30.97;34.38;99942.75;4974823;28;20085;-60
2022/07/03 11:10:17;;;;;;;4.03;0.90;;;;;;;31.28;34.72;99938.38;4991710;28;20053;-60
2022/07/03 11:12:59;;;;;;;6.45;0.95;;;;;;;31.57;34.53;99939.63;4991974;28;20050;-61
2022/07/03 11:15:28;;;;;;;1.90;1.13;;;;;;;31.99;34.71;99943.66;4974078;28;20387;-59
2022/07/03 11:18:28;;;;;;;2.90;0.90;;;;;;;32.41;34.86;99950.31;4991746;28;20065;-61
2022/07/03 11:21:21;;;;;;;1.55;0.90;;;;;;;32.75;32.72;99942.59;4957188;28;20058;-62
2022/07/03 11:24:18;;;;;;;3.25;0.80;;;;;;;32.85;31.54;99945.56;4973988;28;20056;-62
2022/07/03 11:26:45;;;;;;;1.33;0.90;;;;;;;32.81;31.40;99944.38;4991510;28;20054;-62
2022/07/03 11:29:30;;;;;;;2.75;1.00;;;;;;;32.49;30.84;99955.50;4989956;28;20058;-62
2022/07/03 11:31:56;;;;;;;1.98;0.90;;;;;;;32.24;30.81;99948.22;4991266;28;20101;-61
2022/07/03 11:34:23;;;;;;;1.73;0.70;;;;;;;31.90;31.36;99940.41;4990292;28;20057;-64
2022/07/03 11:36:49;;;;;;;3.42;0.88;;;;;;;31.61;31.81;99942.72;4990833;28;20491;-60
2022/07/03 11:39:19;;;;;;;2.08;1.00;;;;;;;31.41;32.41;99932.03;4991106;28;20057;-62
2022/07/03 11:41:46;;;;;;;1.83;1.10;;;;;;;31.33;32.19;99935.84;4991260;28;20047;-61
2022/07/03 11:44:19;;;;;;;2.47;1.10;;;;;;;31.22;31.84;99934.66;4991337;28;20066;-63
2022/07/03 11:46:49;;;;;;;4.32;1.00;;;;;;;31.13;31.66;99933.25;4973819;28;20109;-62
2022/07/03 11:49:21;;;;;;;2.30;0.90;;;;;;;31.02;32.97;99923.94;4990975;28;20046;-61
2022/07/03 11:51:53;;;;;;;1.52;0.90;;;;;;;31.07;33.55;99929.53;4991330;28;20113;-63
2022/07/03 11:54:20;;;;;;;1.48;0.90;;;;;;;31.30;34.10;99928.94;4991251;28;20061;-61
2022/07/03 11:56:47;;;;;;;1.77;0.90;;;;;;;31.64;34.27;99925.97;4990848;28;20104;-61
2022/07/03 11:59:13;;;;;;;3.03;1.08;;;;;;;32.08;33.45;99936.88;4993639;28;20065;-63
2022/07/03 12:01:40;;;;;;;1.58;0.82;;;;;;;32.56;32.88;99937.19;4997274;28;20046;-60